sensor_id;sensor_type;location;lat;lon;timestamp;temperature;humidity
26107;DHT22;13866;50.748;12.630;2022-11-21T00:00:46;2.10;99.90
26107;DHT22;13866;50.748;12.630;2022-11-21T00:03:13;2.10;99.90
26107;DHT22;13866;50.748;12.630;2022-11-21T00:05:41;2.20;99.90
26107;DHT22;13866;50.748;12.630;2022-11-21T00:08:08;2.20;99.90
26107;DHT22;13866;50.748;12.630;2022-11-21T00:10:35;2.20;99.90
26107;DHT22;13866;50.748;12.630;2022-11-21T00:13:01;2.30;99.90
26107;DHT22;13866;50.748;12.630;2022-11-21T00:15:27;2.30;99.90
26107;DHT22;13866;50.748;12.630;2022-11-21T00:17:52;2.20;99.90
26107;DHT22;13866;50.748;12.630;2022-11-21T00:20:19;2.40;99.90
26107;DHT22;13866;50.748;12.630;2022-11-21T00:22:45;2.40;99.90
26107;DHT22;13866;50.748;12.630;2022-11-21T00:25:11;2.40;99.90
26107;DHT22;13866;50.748;12.630;2022-11-21T00:27:37;2.40;99.90
26107;DHT22;13866;50.748;12.630;2022-11-21T00:30:04;2.40;99.90
26107;DHT22;13866;50.748;12.630;2022-11-21T00:32:30;2.50;99.90
26107;DHT22;13866;50.748;12.630;2022-11-21T00:34:56;2.50;99.90
26107;DHT22;13866;50.748;12.630;2022-11-21T00:37:21;2.50;99.90
26107;DHT22;13866;50.748;12.630;2022-11-21T00:39:47;2.50;99.90
26107;DHT22;13866;50.748;12.630;2022-11-21T00:42:13;2.60;99.90
26107;DHT22;13866;50.748;12.630;2022-11-21T00:44:38;2.50;99.90
26107;DHT22;13866;50.748;12.630;2022-11-21T00:47:04;2.50;99.90
26107;DHT22;13866;50.748;12.630;2022-11-21T00:49:29;2.60;99.90
26107;DHT22;13866;50.748;12.630;2022-11-21T00:51:55;2.60;99.90
26107;DHT22;13866;50.748;12.630;2022-11-21T00:54:20;2.60;99.90
26107;DHT22;13866;50.748;12.630;2022-11-21T00:56:46;2.50;99.90
26107;DHT22;13866;50.748;12.630;2022-11-21T00:59:11;2.60;99.90
26107;DHT22;13866;50.748;12.630;2022-11-21T01:01:37;2.60;99.90
26107;DHT22;13866;50.748;12.630;2022-11-21T01:04:03;2.60;99.90
26107;DHT22;13866;50.748;12.630;2022-11-21T01:06:29;2.50;99.90
26107;DHT22;13866;50.748;12.630;2022-11-21T01:08:54;2.60;99.90
26107;DHT22;13866;50.748;12.630;2022-11-21T01:11:20;2.50;99.90
26107;DHT22;13866;50.748;12.630;2022-11-21T01:13:47;2.50;99.90
26107;DHT22;13866;50.748;12.630;2022-11-21T01:16:16;2.50;99.90
26107;DHT22;13866;50.748;12.630;2022-11-21T01:18:42;2.50;99.90
26107;DHT22;13866;50.748;12.630;2022-11-21T01:21:20;2.50;99.90
26107;DHT22;13866;50.748;12.630;2022-11-21T01:23:46;2.40;99.90
26107;DHT22;13866;50.748;12.630;2022-11-21T01:26:17;2.50;99.90
26107;DHT22;13866;50.748;12.630;2022-11-21T01:28:43;2.40;99.90
26107;DHT22;13866;50.748;12.630;2022-11-21T01:31:11;2.40;99.90
26107;DHT22;13866;50.748;12.630;2022-11-21T01:33:37;2.50;99.90
26107;DHT22;13866;50.748;12.630;2022-11-21T01:36:09;2.50;99.90
26107;DHT22;13866;50.748;12.630;2022-11-21T01:38:35;2.50;99.90
26107;DHT22;13866;50.748;12.630;2022-11-21T01:41:01;2.50;99.90
26107;DHT22;13866;50.748;12.630;2022-11-21T01:43:26;2.50;99.90
26107;DHT22;13866;50.748;12.630;2022-11-21T01:45:59;2.50;99.90
26107;DHT22;13866;50.748;12.630;2022-11-21T01:48:38;2.60;99.90
26107;DHT22;13866;50.748;12.630;2022-11-21T01:56:41;2.60;99.90
26107;DHT22;13866;50.748;12.630;2022-11-21T01:59:16;2.60;99.90
26107;DHT22;13866;50.748;12.630;2022-11-21T02:01:44;2.60;99.90
26107;DHT22;13866;50.748;12.630;2022-11-21T02:04:10;2.70;99.90
26107;DHT22;13866;50.748;12.630;2022-11-21T02:06:36;2.70;99.90
26107;DHT22;13866;50.748;12.630;2022-11-21T02:09:03;2.70;99.90
26107;DHT22;13866;50.748;12.630;2022-11-21T02:11:46;2.70;99.90
26107;DHT22;13866;50.748;12.630;2022-11-21T02:14:13;2.70;99.90
26107;DHT22;13866;50.748;12.630;2022-11-21T02:16:39;2.80;99.90
26107;DHT22;13866;50.748;12.630;2022-11-21T02:19:08;2.80;99.90
26107;DHT22;13866;50.748;12.630;2022-11-21T02:22:02;2.80;99.90
26107;DHT22;13866;50.748;12.630;2022-11-21T02:24:38;2.80;99.90
26107;DHT22;13866;50.748;12.630;2022-11-21T02:27:08;2.80;99.90
26107;DHT22;13866;50.748;12.630;2022-11-21T02:29:34;2.80;99.90
26107;DHT22;13866;50.748;12.630;2022-11-21T02:32:03;2.80;99.90
26107;DHT22;13866;50.748;12.630;2022-11-21T02:34:30;2.80;99.90
26107;DHT22;13866;50.748;12.630;2022-11-21T02:36:56;2.80;99.90
26107;DHT22;13866;50.748;12.630;2022-11-21T02:39:27;2.90;99.90
26107;DHT22;13866;50.748;12.630;2022-11-21T02:42:08;2.90;99.90
26107;DHT22;13866;50.748;12.630;2022-11-21T02:44:50;3.00;99.90
26107;DHT22;13866;50.748;12.630;2022-11-21T02:47:19;3.00;99.90
26107;DHT22;13866;50.748;12.630;2022-11-21T02:49:57;3.00;99.90
26107;DHT22;13866;50.748;12.630;2022-11-21T02:52:24;3.00;99.90
26107;DHT22;13866;50.748;12.630;2022-11-21T02:54:49;3.00;99.90
26107;DHT22;13866;50.748;12.630;2022-11-21T02:57:15;3.00;99.90
26107;DHT22;13866;50.748;12.630;2022-11-21T02:59:40;3.10;99.90
26107;DHT22;13866;50.748;12.630;2022-11-21T03:02:06;3.10;99.90
26107;DHT22;13866;50.748;12.630;2022-11-21T03:04:31;3.10;99.90
26107;DHT22;13866;50.748;12.630;2022-11-21T03:06:57;3.10;99.90
26107;DHT22;13866;50.748;12.630;2022-11-21T03:09:22;3.10;99.90
26107;DHT22;13866;50.748;12.630;2022-11-21T03:11:48;3.10;99.90
26107;DHT22;13866;50.748;12.630;2022-11-21T03:14:13;3.20;99.90
26107;DHT22;13866;50.748;12.630;2022-11-21T03:16:39;3.20;99.90
26107;DHT22;13866;50.748;12.630;2022-11-21T03:19:04;3.30;99.90
26107;DHT22;13866;50.748;12.630;2022-11-21T03:21:30;3.30;99.90
26107;DHT22;13866;50.748;12.630;2022-11-21T03:23:55;3.30;99.90
26107;DHT22;13866;50.748;12.630;2022-11-21T03:26:21;3.30;99.90
26107;DHT22;13866;50.748;12.630;2022-11-21T03:28:46;3.30;99.90
26107;DHT22;13866;50.748;12.630;2022-11-21T03:31:12;3.30;99.90
26107;DHT22;13866;50.748;12.630;2022-11-21T03:33:37;3.30;99.90
26107;DHT22;13866;50.748;12.630;2022-11-21T03:36:03;3.30;99.90
26107;DHT22;13866;50.748;12.630;2022-11-21T03:38:29;3.30;99.90
26107;DHT22;13866;50.748;12.630;2022-11-21T03:40:54;3.30;99.90
26107;DHT22;13866;50.748;12.630;2022-11-21T03:43:20;3.30;99.90
26107;DHT22;13866;50.748;12.630;2022-11-21T03:45:46;3.30;99.90
26107;DHT22;13866;50.748;12.630;2022-11-21T03:48:13;3.30;99.90
26107;DHT22;13866;50.748;12.630;2022-11-21T03:50:41;3.30;99.90
26107;DHT22;13866;50.748;12.630;2022-11-21T03:53:07;3.30;99.90
26107;DHT22;13866;50.748;12.630;2022-11-21T03:55:32;3.30;99.90
26107;DHT22;13866;50.748;12.630;2022-11-21T03:57:58;3.30;99.90
26107;DHT22;13866;50.748;12.630;2022-11-21T04:00:24;3.20;99.90
26107;DHT22;13866;50.748;12.630;2022-11-21T04:02:49;3.20;99.90
26107;DHT22;13866;50.748;12.630;2022-11-21T04:05:15;3.20;99.90
26107;DHT22;13866;50.748;12.630;2022-11-21T04:07:40;3.30;99.90
26107;DHT22;13866;50.748;12.630;2022-11-21T04:10:06;3.30;99.90
26107;DHT22;13866;50.748;12.630;2022-11-21T04:12:32;3.30;99.90
26107;DHT22;13866;50.748;12.630;2022-11-21T04:14:57;3.30;99.90
26107;DHT22;13866;50.748;12.630;2022-11-21T04:17:22;3.30;99.90
26107;DHT22;13866;50.748;12.630;2022-11-21T04:19:48;3.30;99.90
26107;DHT22;13866;50.748;12.630;2022-11-21T04:22:13;3.20;99.90
26107;DHT22;13866;50.748;12.630;2022-11-21T04:24:39;3.30;99.90
26107;DHT22;13866;50.748;12.630;2022-11-21T04:27:04;3.20;99.90
26107;DHT22;13866;50.748;12.630;2022-11-21T04:29:30;3.20;99.90
26107;DHT22;13866;50.748;12.630;2022-11-21T04:31:55;3.20;99.90
26107;DHT22;13866;50.748;12.630;2022-11-21T04:34:21;3.20;99.90
26107;DHT22;13866;50.748;12.630;2022-11-21T04:36:46;3.20;99.90
26107;DHT22;13866;50.748;12.630;2022-11-21T04:39:12;3.20;99.90
26107;DHT22;13866;50.748;12.630;2022-11-21T04:41:37;3.30;99.90
26107;DHT22;13866;50.748;12.630;2022-11-21T04:44:03;3.30;99.90
26107;DHT22;13866;50.748;12.630;2022-11-21T04:46:29;3.30;99.90
26107;DHT22;13866;50.748;12.630;2022-11-21T04:48:54;3.30;99.90
26107;DHT22;13866;50.748;12.630;2022-11-21T04:51:19;3.20;99.90
26107;DHT22;13866;50.748;12.630;2022-11-21T04:53:45;3.30;99.90
26107;DHT22;13866;50.748;12.630;2022-11-21T04:56:10;3.20;99.90
26107;DHT22;13866;50.748;12.630;2022-11-21T04:58:41;3.30;99.90
26107;DHT22;13866;50.748;12.630;2022-11-21T05:01:07;3.30;99.90
26107;DHT22;13866;50.748;12.630;2022-11-21T05:03:33;3.30;99.90
26107;DHT22;13866;50.748;12.630;2022-11-21T05:05:59;3.20;99.90
26107;DHT22;13866;50.748;12.630;2022-11-21T05:08:24;3.30;99.90
26107;DHT22;13866;50.748;12.630;2022-11-21T05:10:50;3.30;99.90
26107;DHT22;13866;50.748;12.630;2022-11-21T05:13:34;3.30;99.90
26107;DHT22;13866;50.748;12.630;2022-11-21T05:15:59;3.30;99.90
26107;DHT22;13866;50.748;12.630;2022-11-21T05:18:25;3.30;99.90
26107;DHT22;13866;50.748;12.630;2022-11-21T05:20:50;3.30;99.90
26107;DHT22;13866;50.748;12.630;2022-11-21T05:23:16;3.40;99.90
26107;DHT22;13866;50.748;12.630;2022-11-21T05:25:41;3.40;99.90
26107;DHT22;13866;50.748;12.630;2022-11-21T05:28:07;3.30;99.90
26107;DHT22;13866;50.748;12.630;2022-11-21T05:30:32;3.30;99.90
26107;DHT22;13866;50.748;12.630;2022-11-21T05:32:58;3.30;99.90
26107;DHT22;13866;50.748;12.630;2022-11-21T05:35:24;3.30;99.90
26107;DHT22;13866;50.748;12.630;2022-11-21T05:37:55;3.30;99.90
26107;DHT22;13866;50.748;12.630;2022-11-21T05:40:21;3.30;99.90
26107;DHT22;13866;50.748;12.630;2022-11-21T05:42:47;3.20;99.90
26107;DHT22;13866;50.748;12.630;2022-11-21T05:45:31;3.20;99.90
26107;DHT22;13866;50.748;12.630;2022-11-21T05:47:56;3.20;99.90
26107;DHT22;13866;50.748;12.630;2022-11-21T05:50:22;3.20;99.90
26107;DHT22;13866;50.748;12.630;2022-11-21T05:52:47;3.10;99.90
26107;DHT22;13866;50.748;12.630;2022-11-21T05:55:13;3.10;99.90
26107;DHT22;13866;50.748;12.630;2022-11-21T05:57:39;3.10;99.90
26107;DHT22;13866;50.748;12.630;2022-11-21T06:00:04;3.10;99.90
26107;DHT22;13866;50.748;12.630;2022-11-21T06:02:30;3.00;99.90
26107;DHT22;13866;50.748;12.630;2022-11-21T06:05:14;3.00;99.90
26107;DHT22;13866;50.748;12.630;2022-11-21T06:07:40;3.00;99.90
26107;DHT22;13866;50.748;12.630;2022-11-21T06:10:05;3.00;99.90
26107;DHT22;13866;50.748;12.630;2022-11-21T06:12:31;2.90;99.90
26107;DHT22;13866;50.748;12.630;2022-11-21T06:14:56;2.90;99.90
26107;DHT22;13866;50.748;12.630;2022-11-21T06:17:22;2.80;99.90
26107;DHT22;13866;50.748;12.630;2022-11-21T06:19:47;2.80;99.90
26107;DHT22;13866;50.748;12.630;2022-11-21T06:22:13;2.70;99.90
26107;DHT22;13866;50.748;12.630;2022-11-21T06:24:38;2.60;99.90
26107;DHT22;13866;50.748;12.630;2022-11-21T06:27:04;2.50;99.90
26107;DHT22;13866;50.748;12.630;2022-11-21T06:29:29;2.40;99.90
26107;DHT22;13866;50.748;12.630;2022-11-21T06:31:55;2.30;99.90
26107;DHT22;13866;50.748;12.630;2022-11-21T06:34:20;2.20;99.90
26107;DHT22;13866;50.748;12.630;2022-11-21T06:36:46;2.00;99.90
26107;DHT22;13866;50.748;12.630;2022-11-21T06:39:11;1.90;99.90
26107;DHT22;13866;50.748;12.630;2022-11-21T06:41:37;1.70;99.90
26107;DHT22;13866;50.748;12.630;2022-11-21T06:44:02;1.60;99.90
26107;DHT22;13866;50.748;12.630;2022-11-21T06:46:28;1.50;99.90
26107;DHT22;13866;50.748;12.630;2022-11-21T06:48:54;1.40;99.90
26107;DHT22;13866;50.748;12.630;2022-11-21T06:51:21;1.30;99.90
26107;DHT22;13866;50.748;12.630;2022-11-21T06:53:51;1.10;99.90
26107;DHT22;13866;50.748;12.630;2022-11-21T06:56:20;1.00;99.90
26107;DHT22;13866;50.748;12.630;2022-11-21T06:58:46;0.90;99.90
26107;DHT22;13866;50.748;12.630;2022-11-21T07:01:11;0.80;99.90
26107;DHT22;13866;50.748;12.630;2022-11-21T07:03:37;0.60;99.90
26107;DHT22;13866;50.748;12.630;2022-11-21T07:06:04;0.40;99.90
26107;DHT22;13866;50.748;12.630;2022-11-21T07:08:31;0.30;99.90
26107;DHT22;13866;50.748;12.630;2022-11-21T07:11:01;0.20;99.90
26107;DHT22;13866;50.748;12.630;2022-11-21T07:13:27;0.20;99.90
26107;DHT22;13866;50.748;12.630;2022-11-21T07:15:54;0.20;99.90
26107;DHT22;13866;50.748;12.630;2022-11-21T07:18:21;0.20;99.90
26107;DHT22;13866;50.748;12.630;2022-11-21T07:20:47;0.10;99.90
26107;DHT22;13866;50.748;12.630;2022-11-21T07:23:13;0.00;99.90
26107;DHT22;13866;50.748;12.630;2022-11-21T07:25:39;0.00;99.90
26107;DHT22;13866;50.748;12.630;2022-11-21T07:28:06;0.00;99.90
26107;DHT22;13866;50.748;12.630;2022-11-21T07:30:32;0.00;99.90
26107;DHT22;13866;50.748;12.630;2022-11-21T07:32:59;0.00;99.90
26107;DHT22;13866;50.748;12.630;2022-11-21T07:35:26;0.00;99.90
26107;DHT22;13866;50.748;12.630;2022-11-21T07:37:52;-0.10;99.90
26107;DHT22;13866;50.748;12.630;2022-11-21T07:40:18;-0.10;99.90
26107;DHT22;13866;50.748;12.630;2022-11-21T07:42:43;-0.10;99.90
26107;DHT22;13866;50.748;12.630;2022-11-21T07:45:09;0.00;99.90
26107;DHT22;13866;50.748;12.630;2022-11-21T07:47:35;0.00;99.90
26107;DHT22;13866;50.748;12.630;2022-11-21T07:50:01;0.10;99.90
26107;DHT22;13866;50.748;12.630;2022-11-21T07:52:27;0.10;99.90
26107;DHT22;13866;50.748;12.630;2022-11-21T07:54:57;0.10;99.90
26107;DHT22;13866;50.748;12.630;2022-11-21T07:57:23;0.00;99.90
26107;DHT22;13866;50.748;12.630;2022-11-21T07:59:49;0.10;99.90
26107;DHT22;13866;50.748;12.630;2022-11-21T08:02:22;0.10;99.90
26107;DHT22;13866;50.748;12.630;2022-11-21T08:04:48;0.00;99.90
26107;DHT22;13866;50.748;12.630;2022-11-21T08:07:15;0.00;99.90
26107;DHT22;13866;50.748;12.630;2022-11-21T08:09:41;0.00;99.90
26107;DHT22;13866;50.748;12.630;2022-11-21T08:12:07;0.00;99.90
26107;DHT22;13866;50.748;12.630;2022-11-21T08:14:33;-0.10;99.90
26107;DHT22;13866;50.748;12.630;2022-11-21T08:16:59;-0.20;99.90
26107;DHT22;13866;50.748;12.630;2022-11-21T08:19:24;-0.20;99.90
26107;DHT22;13866;50.748;12.630;2022-11-21T08:21:50;-0.20;99.90
26107;DHT22;13866;50.748;12.630;2022-11-21T08:24:15;-0.20;99.90
26107;DHT22;13866;50.748;12.630;2022-11-21T08:26:42;-0.20;99.90
26107;DHT22;13866;50.748;12.630;2022-11-21T08:29:09;-0.30;99.90
26107;DHT22;13866;50.748;12.630;2022-11-21T08:31:36;-0.30;99.90
26107;DHT22;13866;50.748;12.630;2022-11-21T08:34:01;-0.30;99.90
26107;DHT22;13866;50.748;12.630;2022-11-21T08:36:27;-0.30;99.90
26107;DHT22;13866;50.748;12.630;2022-11-21T08:38:52;-0.30;99.90
26107;DHT22;13866;50.748;12.630;2022-11-21T08:41:18;-0.30;99.90
26107;DHT22;13866;50.748;12.630;2022-11-21T08:44:02;-0.20;99.90
26107;DHT22;13866;50.748;12.630;2022-11-21T08:46:29;-0.30;99.90
26107;DHT22;13866;50.748;12.630;2022-11-21T08:48:56;-0.30;99.90
26107;DHT22;13866;50.748;12.630;2022-11-21T08:51:22;-0.30;99.90
26107;DHT22;13866;50.748;12.630;2022-11-21T08:53:47;-0.30;99.90
26107;DHT22;13866;50.748;12.630;2022-11-21T08:56:13;-0.40;99.90
26107;DHT22;13866;50.748;12.630;2022-11-21T08:58:39;-0.30;99.90
26107;DHT22;13866;50.748;12.630;2022-11-21T09:01:04;-0.30;99.90
26107;DHT22;13866;50.748;12.630;2022-11-21T09:03:30;-0.40;99.90
26107;DHT22;13866;50.748;12.630;2022-11-21T09:05:56;-0.30;99.90
26107;DHT22;13866;50.748;12.630;2022-11-21T09:08:22;-0.40;99.90
26107;DHT22;13866;50.748;12.630;2022-11-21T09:10:48;-0.40;99.90
26107;DHT22;13866;50.748;12.630;2022-11-21T09:13:13;-0.40;99.90
26107;DHT22;13866;50.748;12.630;2022-11-21T09:15:39;-0.40;99.90
26107;DHT22;13866;50.748;12.630;2022-11-21T09:18:23;-0.40;99.90
26107;DHT22;13866;50.748;12.630;2022-11-21T09:20:48;-0.40;99.90
26107;DHT22;13866;50.748;12.630;2022-11-21T09:23:15;-0.30;99.90
26107;DHT22;13866;50.748;12.630;2022-11-21T09:25:41;-0.30;99.90
26107;DHT22;13866;50.748;12.630;2022-11-21T09:28:08;-0.30;99.90
26107;DHT22;13866;50.748;12.630;2022-11-21T09:30:34;-0.30;99.90
26107;DHT22;13866;50.748;12.630;2022-11-21T09:33:01;-0.20;99.90
26107;DHT22;13866;50.748;12.630;2022-11-21T09:35:26;-0.30;99.90
26107;DHT22;13866;50.748;12.630;2022-11-21T09:37:52;-0.20;99.90
26107;DHT22;13866;50.748;12.630;2022-11-21T09:40:18;-0.30;99.90
26107;DHT22;13866;50.748;12.630;2022-11-21T09:42:54;-0.30;99.90
26107;DHT22;13866;50.748;12.630;2022-11-21T09:45:31;-0.30;99.90
26107;DHT22;13866;50.748;12.630;2022-11-21T09:48:11;-0.30;99.90
26107;DHT22;13866;50.748;12.630;2022-11-21T09:50:40;-0.30;99.90
26107;DHT22;13866;50.748;12.630;2022-11-21T09:53:26;-0.30;99.90
26107;DHT22;13866;50.748;12.630;2022-11-21T10:00:59;-0.20;99.90
26107;DHT22;13866;50.748;12.630;2022-11-21T10:03:29;-0.30;99.90
26107;DHT22;13866;50.748;12.630;2022-11-21T10:06:03;-0.30;99.90
26107;DHT22;13866;50.748;12.630;2022-11-21T10:11:23;-0.20;99.90
26107;DHT22;13866;50.748;12.630;2022-11-21T10:14:23;-0.10;99.90
26107;DHT22;13866;50.748;12.630;2022-11-21T10:20:39;-0.10;99.90
26107;DHT22;13866;50.748;12.630;2022-11-21T10:25:38;0.00;99.90
26107;DHT22;13866;50.748;12.630;2022-11-21T10:28:32;0.00;99.90
26107;DHT22;13866;50.748;12.630;2022-11-21T10:31:03;0.00;99.90
26107;DHT22;13866;50.748;12.630;2022-11-21T10:33:33;0.00;99.90
26107;DHT22;13866;50.748;12.630;2022-11-21T10:38:37;0.00;99.90
26107;DHT22;13866;50.748;12.630;2022-11-21T10:41:17;0.00;99.90
26107;DHT22;13866;50.748;12.630;2022-11-21T10:43:53;0.00;99.90
26107;DHT22;13866;50.748;12.630;2022-11-21T10:46:56;0.00;99.90
26107;DHT22;13866;50.748;12.630;2022-11-21T10:49:23;0.00;99.90
26107;DHT22;13866;50.748;12.630;2022-11-21T10:52:04;0.00;99.90
26107;DHT22;13866;50.748;12.630;2022-11-21T10:54:30;0.00;99.90
26107;DHT22;13866;50.748;12.630;2022-11-21T10:57:13;0.00;99.90
26107;DHT22;13866;50.748;12.630;2022-11-21T10:59:40;0.10;99.90
26107;DHT22;13866;50.748;12.630;2022-11-21T11:04:38;0.20;99.90
26107;DHT22;13866;50.748;12.630;2022-11-21T11:09:44;0.10;99.90
26107;DHT22;13866;50.748;12.630;2022-11-21T11:14:52;0.10;99.90
26107;DHT22;13866;50.748;12.630;2022-11-21T11:17:30;0.10;99.90
26107;DHT22;13866;50.748;12.630;2022-11-21T11:20:05;0.10;99.90
26107;DHT22;13866;50.748;12.630;2022-11-21T11:22:32;0.20;99.90
26107;DHT22;13866;50.748;12.630;2022-11-21T11:24:57;0.20;99.90
26107;DHT22;13866;50.748;12.630;2022-11-21T11:27:27;0.10;99.90
26107;DHT22;13866;50.748;12.630;2022-11-21T11:29:53;0.00;99.90
26107;DHT22;13866;50.748;12.630;2022-11-21T11:32:18;0.00;99.90
26107;DHT22;13866;50.748;12.630;2022-11-21T11:45:22;0.10;99.90
26107;DHT22;13866;50.748;12.630;2022-11-21T11:48:09;0.10;99.90
26107;DHT22;13866;50.748;12.630;2022-11-21T11:50:59;0.20;99.90
26107;DHT22;13866;50.748;12.630;2022-11-21T11:53:30;0.10;99.90
26107;DHT22;13866;50.748;12.630;2022-11-21T11:56:05;0.20;99.90
26107;DHT22;13866;50.748;12.630;2022-11-21T12:01:12;0.30;99.90
26107;DHT22;13866;50.748;12.630;2022-11-21T12:06:32;0.50;99.90
26107;DHT22;13866;50.748;12.630;2022-11-21T12:09:03;0.50;99.90
26107;DHT22;13866;50.748;12.630;2022-11-21T12:11:42;0.40;99.90
26107;DHT22;13866;50.748;12.630;2022-11-21T12:14:30;0.50;99.90
26107;DHT22;13866;50.748;12.630;2022-11-21T12:17:20;0.60;99.90
26107;DHT22;13866;50.748;12.630;2022-11-21T12:19:49;0.60;99.90
26107;DHT22;13866;50.748;12.630;2022-11-21T12:22:17;0.70;99.90
26107;DHT22;13866;50.748;12.630;2022-11-21T12:24:42;0.60;99.90
26107;DHT22;13866;50.748;12.630;2022-11-21T12:27:28;0.70;99.90
26107;DHT22;13866;50.748;12.630;2022-11-21T12:33:10;0.80;99.90
26107;DHT22;13866;50.748;12.630;2022-11-21T12:36:13;0.80;99.90
26107;DHT22;13866;50.748;12.630;2022-11-21T12:47:25;0.80;99.90
26107;DHT22;13866;50.748;12.630;2022-11-21T12:50:06;0.90;99.90
26107;DHT22;13866;50.748;12.630;2022-11-21T12:53:28;0.80;99.90
26107;DHT22;13866;50.748;12.630;2022-11-21T12:56:36;0.90;99.90
26107;DHT22;13866;50.748;12.630;2022-11-21T12:59:06;1.00;99.90
26107;DHT22;13866;50.748;12.630;2022-11-21T13:04:35;1.10;99.90
26107;DHT22;13866;50.748;12.630;2022-11-21T13:07:03;1.10;99.90
26107;DHT22;13866;50.748;12.630;2022-11-21T13:09:33;1.10;99.90
26107;DHT22;13866;50.748;12.630;2022-11-21T13:12:08;1.20;99.90
26107;DHT22;13866;50.748;12.630;2022-11-21T13:14:39;1.30;99.90
26107;DHT22;13866;50.748;12.630;2022-11-21T13:22:55;1.40;99.90
26107;DHT22;13866;50.748;12.630;2022-11-21T13:25:37;1.40;99.90
26107;DHT22;13866;50.748;12.630;2022-11-21T13:30:51;1.40;99.90
26107;DHT22;13866;50.748;12.630;2022-11-21T13:44:37;1.40;99.90
26107;DHT22;13866;50.748;12.630;2022-11-21T13:47:11;1.40;99.90
26107;DHT22;13866;50.748;12.630;2022-11-21T13:50:19;1.40;99.90
26107;DHT22;13866;50.748;12.630;2022-11-21T13:53:34;1.40;99.90
26107;DHT22;13866;50.748;12.630;2022-11-21T13:55:56;1.40;99.90
26107;DHT22;13866;50.748;12.630;2022-11-21T13:58:54;1.20;99.90
26107;DHT22;13866;50.748;12.630;2022-11-21T14:04:48;1.20;99.90
26107;DHT22;13866;50.748;12.630;2022-11-21T14:07:21;1.20;99.90
26107;DHT22;13866;50.748;12.630;2022-11-21T14:09:50;1.30;99.90
26107;DHT22;13866;50.748;12.630;2022-11-21T14:12:22;1.30;99.90
26107;DHT22;13866;50.748;12.630;2022-11-21T14:15:14;1.30;99.90
26107;DHT22;13866;50.748;12.630;2022-11-21T14:17:47;1.30;99.90
26107;DHT22;13866;50.748;12.630;2022-11-21T14:20:22;1.30;99.90
26107;DHT22;13866;50.748;12.630;2022-11-21T14:23:11;1.40;99.90
26107;DHT22;13866;50.748;12.630;2022-11-21T14:28:14;1.50;99.90
26107;DHT22;13866;50.748;12.630;2022-11-21T14:30:41;1.40;99.90
26107;DHT22;13866;50.748;12.630;2022-11-21T14:35:57;1.30;99.90
26107;DHT22;13866;50.748;12.630;2022-11-21T14:38:23;1.30;99.90
26107;DHT22;13866;50.748;12.630;2022-11-21T14:40:50;1.30;99.90
26107;DHT22;13866;50.748;12.630;2022-11-21T14:43:35;1.30;99.90
26107;DHT22;13866;50.748;12.630;2022-11-21T14:46:00;1.30;99.90
26107;DHT22;13866;50.748;12.630;2022-11-21T14:48:29;1.20;99.90
26107;DHT22;13866;50.748;12.630;2022-11-21T14:50:59;1.30;99.90
26107;DHT22;13866;50.748;12.630;2022-11-21T14:53:26;1.30;99.90
26107;DHT22;13866;50.748;12.630;2022-11-21T14:55:52;1.30;99.90
26107;DHT22;13866;50.748;12.630;2022-11-21T14:58:19;1.30;99.90
26107;DHT22;13866;50.748;12.630;2022-11-21T15:01:19;1.30;99.90
26107;DHT22;13866;50.748;12.630;2022-11-21T15:03:55;1.30;99.90
26107;DHT22;13866;50.748;12.630;2022-11-21T15:06:22;1.30;99.90
26107;DHT22;13866;50.748;12.630;2022-11-21T15:08:48;1.30;99.90
26107;DHT22;13866;50.748;12.630;2022-11-21T15:11:16;1.30;99.90
26107;DHT22;13866;50.748;12.630;2022-11-21T15:13:44;1.30;99.90
26107;DHT22;13866;50.748;12.630;2022-11-21T15:16:11;1.40;99.90
26107;DHT22;13866;50.748;12.630;2022-11-21T15:18:39;1.40;99.90
26107;DHT22;13866;50.748;12.630;2022-11-21T15:21:06;1.30;99.90
26107;DHT22;13866;50.748;12.630;2022-11-21T15:23:33;1.20;99.90
26107;DHT22;13866;50.748;12.630;2022-11-21T15:26:00;1.20;99.90
26107;DHT22;13866;50.748;12.630;2022-11-21T15:28:27;1.20;99.90
26107;DHT22;13866;50.748;12.630;2022-11-21T15:31:18;1.30;99.90
26107;DHT22;13866;50.748;12.630;2022-11-21T15:34:01;1.20;99.90
26107;DHT22;13866;50.748;12.630;2022-11-21T15:36:29;1.20;99.90
26107;DHT22;13866;50.748;12.630;2022-11-21T15:41:30;1.10;99.90
26107;DHT22;13866;50.748;12.630;2022-11-21T15:46:27;1.10;99.90
26107;DHT22;13866;50.748;12.630;2022-11-21T15:48:53;1.10;99.90
26107;DHT22;13866;50.748;12.630;2022-11-21T15:53:55;1.10;99.90
26107;DHT22;13866;50.748;12.630;2022-11-21T15:56:21;1.20;99.90
26107;DHT22;13866;50.748;12.630;2022-11-21T15:58:47;1.10;99.90
26107;DHT22;13866;50.748;12.630;2022-11-21T16:01:18;1.20;99.90
26107;DHT22;13866;50.748;12.630;2022-11-21T16:03:45;1.10;99.90
26107;DHT22;13866;50.748;12.630;2022-11-21T16:06:12;1.10;99.90
26107;DHT22;13866;50.748;12.630;2022-11-21T16:08:38;1.10;99.90
26107;DHT22;13866;50.748;12.630;2022-11-21T16:11:03;1.00;99.90
26107;DHT22;13866;50.748;12.630;2022-11-21T16:13:29;1.00;99.90
26107;DHT22;13866;50.748;12.630;2022-11-21T16:15:54;0.90;99.90
26107;DHT22;13866;50.748;12.630;2022-11-21T16:18:20;0.80;99.90
26107;DHT22;13866;50.748;12.630;2022-11-21T16:20:45;0.80;99.90
26107;DHT22;13866;50.748;12.630;2022-11-21T16:23:11;0.70;99.90
26107;DHT22;13866;50.748;12.630;2022-11-21T16:25:37;0.70;99.90
26107;DHT22;13866;50.748;12.630;2022-11-21T16:28:13;0.60;99.90
26107;DHT22;13866;50.748;12.630;2022-11-21T16:30:39;0.60;99.90
26107;DHT22;13866;50.748;12.630;2022-11-21T16:33:05;0.50;99.90
26107;DHT22;13866;50.748;12.630;2022-11-21T16:35:30;0.40;99.90
26107;DHT22;13866;50.748;12.630;2022-11-21T16:37:56;0.40;99.90
26107;DHT22;13866;50.748;12.630;2022-11-21T16:40:22;0.30;99.90
26107;DHT22;13866;50.748;12.630;2022-11-21T16:42:47;0.30;99.90
26107;DHT22;13866;50.748;12.630;2022-11-21T16:45:13;0.30;99.90
26107;DHT22;13866;50.748;12.630;2022-11-21T16:47:38;0.20;99.90
26107;DHT22;13866;50.748;12.630;2022-11-21T16:50:04;0.10;99.90
26107;DHT22;13866;50.748;12.630;2022-11-21T16:52:32;0.00;99.90
26107;DHT22;13866;50.748;12.630;2022-11-21T16:54:59;0.00;99.90
26107;DHT22;13866;50.748;12.630;2022-11-21T16:57:26;-0.10;99.90
26107;DHT22;13866;50.748;12.630;2022-11-21T16:59:51;-0.10;99.90
26107;DHT22;13866;50.748;12.630;2022-11-21T17:02:17;-0.10;99.90
26107;DHT22;13866;50.748;12.630;2022-11-21T17:04:43;-0.10;99.90
26107;DHT22;13866;50.748;12.630;2022-11-21T17:07:08;-0.20;99.90
26107;DHT22;13866;50.748;12.630;2022-11-21T17:09:34;-0.20;99.90
26107;DHT22;13866;50.748;12.630;2022-11-21T17:11:59;-0.20;99.90
26107;DHT22;13866;50.748;12.630;2022-11-21T17:14:25;-0.20;99.90
26107;DHT22;13866;50.748;12.630;2022-11-21T17:16:50;-0.20;99.90